EVA6113 ROAH-RCTP
Flight info
| Callsign | EVA6113 |
|---|---|
| Flight time | 1h 5m |
| Altitude | 32000 |
| Route | GANJU Y576 LILRA Y573 SEDKU R595 GRACE GRACE1B |
| Aircraft | B77L/H-SDE1E2E3FGHIJ2J3J4J5M1RWXY/LB1D1 |
Departure
| Time | 2026-05-07 10:45 |
|---|---|
| Airport | Naha International Airport (ROAH) |
Arrival
| Time | 2026-05-07 11:50 |
|---|---|
| Airport | Taiwan Taoyuan International Airport (RCTP) |
| Time | Latitude | Longitude | Altitude | Speed | Heading |
|---|---|---|---|---|---|
| 2026-05-07 10:38 | 26.21048 | 127.64809 | 23 ft | 0 kts | 43° |
| 2026-05-07 10:41 | 26.21050 | 127.64811 | 23 ft | 3 kts | 43° |
| 2026-05-07 10:41 | 26.21067 | 127.64835 | 27 ft | 3 kts | 60° |
| 2026-05-07 10:42 | 26.21069 | 127.64842 | 26 ft | 2 kts | 74° |
| 2026-05-07 10:42 | 26.21061 | 127.64868 | 27 ft | 6 kts | 124° |
| 2026-05-07 10:42 | 26.21010 | 127.64884 | 27 ft | 10 kts | 177° |
| 2026-05-07 10:42 | 26.20925 | 127.64864 | 27 ft | 15 kts | 225° |
| 2026-05-07 10:43 | 26.20909 | 127.64747 | 26 ft | 16 kts | 265° |
| 2026-05-07 10:43 | 26.20901 | 127.64630 | 21 ft | 12 kts | 268° |
| 2026-05-07 10:43 | 26.20886 | 127.64539 | 24 ft | 12 kts | 227° |
| 2026-05-07 10:43 | 26.20800 | 127.64529 | 24 ft | 16 kts | 178° |
| 2026-05-07 10:44 | 26.20507 | 127.64543 | 25 ft | 77 kts | 178° |
| 2026-05-07 10:44 | 26.19738 | 127.64580 | 20 ft | 141 kts | 177° |
| 2026-05-07 10:44 | 26.18588 | 127.64645 | 53 ft | 185 kts | 178° |
| 2026-05-07 10:44 | 26.17294 | 127.64744 | 482 ft | 191 kts | 176° |
| 2026-05-07 10:45 | 26.15971 | 127.64840 | 1132 ft | 188 kts | 178° |
| 2026-05-07 10:45 | 26.14662 | 127.64875 | 1807 ft | 191 kts | 178° |
| 2026-05-07 10:45 | 26.13262 | 127.64912 | 2099 ft | 214 kts | 179° |
| 2026-05-07 10:45 | 26.11700 | 127.64740 | 2269 ft | 239 kts | 195° |
| 2026-05-07 10:46 | 26.10053 | 127.64162 | 2770 ft | 254 kts | 199° |
| 2026-05-07 10:46 | 26.08351 | 127.63506 | 3491 ft | 261 kts | 200° |
| 2026-05-07 10:46 | 26.06618 | 127.62845 | 4291 ft | 266 kts | 200° |
| 2026-05-07 10:46 | 26.04849 | 127.62186 | 5083 ft | 270 kts | 200° |
| 2026-05-07 10:47 | 26.03056 | 127.61531 | 5884 ft | 273 kts | 200° |
| 2026-05-07 10:47 | 26.01271 | 127.60833 | 6652 ft | 270 kts | 210° |
| 2026-05-07 10:47 | 25.99900 | 127.59437 | 7255 ft | 270 kts | 244° |
| 2026-05-07 10:47 | 25.99446 | 127.57448 | 8015 ft | 265 kts | 265° |
| 2026-05-07 10:48 | 25.99232 | 127.55392 | 8688 ft | 270 kts | 262° |
| 2026-05-07 10:48 | 25.98949 | 127.53333 | 9512 ft | 269 kts | 261° |
| 2026-05-07 10:48 | 25.98655 | 127.51276 | 10289 ft | 270 kts | 261° |
| 2026-05-07 10:48 | 25.98351 | 127.49152 | 10646 ft | 290 kts | 261° |
| 2026-05-07 10:49 | 25.98026 | 127.46877 | 10823 ft | 314 kts | 261° |
| 2026-05-07 10:49 | 25.97669 | 127.44377 | 11001 ft | 339 kts | 261° |
| 2026-05-07 10:49 | 25.97292 | 127.41731 | 11478 ft | 352 kts | 261° |
| 2026-05-07 10:49 | 25.96901 | 127.38998 | 12096 ft | 362 kts | 261° |
| 2026-05-07 10:50 | 25.96503 | 127.36212 | 12884 ft | 367 kts | 261° |
| 2026-05-07 10:50 | 25.96098 | 127.33388 | 13692 ft | 372 kts | 260° |
| 2026-05-07 10:50 | 25.95688 | 127.30529 | 14387 ft | 377 kts | 260° |
| 2026-05-07 10:50 | 25.95273 | 127.27643 | 15102 ft | 380 kts | 260° |
| 2026-05-07 10:51 | 25.94859 | 127.24769 | 15819 ft | 383 kts | 261° |
| 2026-05-07 10:51 | 25.94431 | 127.21795 | 16542 ft | 386 kts | 260° |
| 2026-05-07 10:51 | 25.94003 | 127.18834 | 17243 ft | 390 kts | 260° |
| 2026-05-07 10:51 | 25.93570 | 127.15841 | 17916 ft | 394 kts | 260° |
| 2026-05-07 10:52 | 25.93138 | 127.12859 | 18528 ft | 398 kts | 260° |
| 2026-05-07 10:52 | 25.92696 | 127.09811 | 19109 ft | 402 kts | 260° |
| 2026-05-07 10:52 | 25.92250 | 127.06741 | 19729 ft | 404 kts | 260° |
| 2026-05-07 10:52 | 25.91798 | 127.03640 | 20344 ft | 406 kts | 260° |
| 2026-05-07 10:53 | 25.91346 | 127.00535 | 20936 ft | 409 kts | 260° |
| 2026-05-07 10:53 | 25.90889 | 126.97402 | 21513 ft | 413 kts | 260° |
| 2026-05-07 10:53 | 25.90426 | 126.94240 | 22062 ft | 416 kts | 260° |
| 2026-05-07 10:53 | 25.89959 | 126.91052 | 22621 ft | 420 kts | 260° |
| 2026-05-07 10:54 | 25.89488 | 126.87839 | 23165 ft | 423 kts | 260° |
| 2026-05-07 10:54 | 25.89013 | 126.84600 | 23683 ft | 426 kts | 260° |
| 2026-05-07 10:54 | 25.88533 | 126.81335 | 24134 ft | 429 kts | 260° |
| 2026-05-07 10:54 | 25.88050 | 126.78058 | 24612 ft | 431 kts | 260° |
| 2026-05-07 10:55 | 25.87421 | 126.74840 | 25074 ft | 433 kts | 254° |
| 2026-05-07 10:55 | 25.86460 | 126.71663 | 25563 ft | 435 kts | 250° |
| 2026-05-07 10:55 | 25.85278 | 126.68557 | 26015 ft | 438 kts | 245° |
| 2026-05-07 10:55 | 25.83832 | 126.65564 | 26467 ft | 441 kts | 242° |
| 2026-05-07 10:56 | 25.82296 | 126.62590 | 26906 ft | 444 kts | 242° |
| 2026-05-07 10:56 | 25.80739 | 126.59605 | 27346 ft | 447 kts | 242° |
| 2026-05-07 10:56 | 25.79177 | 126.56610 | 27805 ft | 450 kts | 242° |
| 2026-05-07 10:56 | 25.77609 | 126.53590 | 28257 ft | 452 kts | 242° |
| 2026-05-07 10:57 | 25.76041 | 126.50558 | 28700 ft | 455 kts | 242° |
| 2026-05-07 10:57 | 25.74464 | 126.47501 | 29126 ft | 457 kts | 242° |
| 2026-05-07 10:57 | 25.72880 | 126.44425 | 29567 ft | 460 kts | 242° |
| 2026-05-07 10:57 | 25.71295 | 126.41347 | 30124 ft | 459 kts | 242° |
| 2026-05-07 10:58 | 25.69715 | 126.38282 | 30684 ft | 457 kts | 242° |
| 2026-05-07 10:58 | 25.68161 | 126.35269 | 31172 ft | 456 kts | 242° |
| 2026-05-07 10:58 | 25.66584 | 126.32212 | 31627 ft | 456 kts | 243° |
| 2026-05-07 10:59 | 25.63715 | 126.26654 | 31979 ft | 462 kts | 243° |
| 2026-05-07 10:59 | 25.62120 | 126.23567 | 31992 ft | 460 kts | 243° |
| 2026-05-07 10:59 | 25.58956 | 126.17458 | 31965 ft | 454 kts | 243° |
| 2026-05-07 11:00 | 25.55799 | 126.11365 | 31978 ft | 457 kts | 242° |
| 2026-05-07 11:00 | 25.52645 | 126.05284 | 31984 ft | 459 kts | 242° |
| 2026-05-07 11:01 | 25.49455 | 125.99144 | 31981 ft | 461 kts | 242° |
| 2026-05-07 11:01 | 25.46255 | 125.92992 | 31981 ft | 461 kts | 242° |
| 2026-05-07 11:02 | 25.43046 | 125.86832 | 31977 ft | 461 kts | 242° |
| 2026-05-07 11:02 | 25.39844 | 125.80695 | 31975 ft | 460 kts | 242° |
| 2026-05-07 11:03 | 25.36660 | 125.74596 | 31975 ft | 460 kts | 242° |
| 2026-05-07 11:03 | 25.33452 | 125.68491 | 31971 ft | 459 kts | 242° |
| 2026-05-07 11:04 | 25.30198 | 125.62408 | 31975 ft | 459 kts | 242° |
| 2026-05-07 11:04 | 25.26958 | 125.56358 | 31983 ft | 458 kts | 242° |
| 2026-05-07 11:05 | 25.23713 | 125.50294 | 31963 ft | 458 kts | 242° |
| 2026-05-07 11:05 | 25.20466 | 125.44229 | 31977 ft | 459 kts | 241° |
| 2026-05-07 11:06 | 25.17210 | 125.38154 | 31971 ft | 460 kts | 241° |
| 2026-05-07 11:06 | 25.13970 | 125.32117 | 31963 ft | 460 kts | 241° |
| 2026-05-07 11:07 | 25.10690 | 125.26022 | 31963 ft | 460 kts | 240° |
| 2026-05-07 11:07 | 25.06979 | 125.20281 | 31957 ft | 462 kts | 235° |
| 2026-05-07 11:08 | 25.03098 | 125.14653 | 31953 ft | 462 kts | 235° |
| 2026-05-07 11:08 | 24.99215 | 125.08954 | 31950 ft | 462 kts | 234° |
| 2026-05-07 11:09 | 24.95189 | 125.03468 | 31948 ft | 463 kts | 232° |
| 2026-05-07 11:09 | 24.91058 | 124.97976 | 31952 ft | 463 kts | 233° |
| 2026-05-07 11:10 | 24.86984 | 124.92481 | 31948 ft | 463 kts | 233° |
| 2026-05-07 11:10 | 24.85148 | 124.89650 | 31944 ft | 458 kts | 244° |
| 2026-05-07 11:10 | 24.84010 | 124.86350 | 31965 ft | 455 kts | 258° |
| 2026-05-07 11:11 | 24.83752 | 124.79491 | 31968 ft | 452 kts | 278° |
| 2026-05-07 11:11 | 24.84679 | 124.72636 | 31973 ft | 455 kts | 278° |
| 2026-05-07 11:12 | 24.85566 | 124.65717 | 31956 ft | 458 kts | 277° |
| 2026-05-07 11:12 | 24.86411 | 124.58762 | 31955 ft | 459 kts | 277° |
| 2026-05-07 11:13 | 24.87239 | 124.51795 | 31952 ft | 458 kts | 277° |
| 2026-05-07 11:13 | 24.88062 | 124.44843 | 31957 ft | 456 kts | 277° |
| 2026-05-07 11:14 | 24.88874 | 124.37965 | 31962 ft | 455 kts | 277° |
| 2026-05-07 11:14 | 24.89686 | 124.31065 | 31959 ft | 453 kts | 277° |
| 2026-05-07 11:15 | 24.90492 | 124.24188 | 31961 ft | 452 kts | 277° |
| 2026-05-07 11:15 | 24.91293 | 124.17325 | 31968 ft | 451 kts | 277° |
| 2026-05-07 11:16 | 24.92089 | 124.10470 | 31957 ft | 451 kts | 277° |
| 2026-05-07 11:16 | 24.92883 | 124.03618 | 31959 ft | 451 kts | 277° |
| 2026-05-07 11:17 | 24.93663 | 123.96755 | 31960 ft | 451 kts | 276° |
| 2026-05-07 11:17 | 24.94390 | 123.89886 | 31964 ft | 451 kts | 276° |
| 2026-05-07 11:18 | 24.95107 | 123.83029 | 31963 ft | 450 kts | 276° |
| 2026-05-07 11:18 | 24.95822 | 123.76216 | 31947 ft | 450 kts | 276° |
| 2026-05-07 11:19 | 24.96544 | 123.69336 | 31959 ft | 451 kts | 276° |
| 2026-05-07 11:19 | 24.97262 | 123.62467 | 31962 ft | 451 kts | 276° |
| 2026-05-07 11:20 | 24.97977 | 123.55591 | 31959 ft | 452 kts | 276° |
| 2026-05-07 11:20 | 24.98690 | 123.48709 | 31960 ft | 452 kts | 276° |
| 2026-05-07 11:21 | 24.99395 | 123.41873 | 31959 ft | 452 kts | 276° |
| 2026-05-07 11:21 | 25.00101 | 123.34994 | 31959 ft | 451 kts | 276° |
| 2026-05-07 11:22 | 25.00803 | 123.28114 | 31958 ft | 451 kts | 276° |
| 2026-05-07 11:22 | 25.01503 | 123.21240 | 31958 ft | 451 kts | 276° |
| 2026-05-07 11:23 | 25.02204 | 123.14385 | 31950 ft | 443 kts | 276° |
| 2026-05-07 11:23 | 25.02551 | 123.11064 | 31941 ft | 428 kts | 276° |
| 2026-05-07 11:23 | 25.02886 | 123.07858 | 31932 ft | 414 kts | 276° |
| 2026-05-07 11:24 | 25.03215 | 123.04704 | 31701 ft | 416 kts | 276° |
| 2026-05-07 11:24 | 25.03539 | 123.01565 | 31266 ft | 417 kts | 276° |
| 2026-05-07 11:24 | 25.03869 | 122.98355 | 30793 ft | 415 kts | 276° |
| 2026-05-07 11:24 | 25.04185 | 122.95204 | 30333 ft | 412 kts | 276° |
| 2026-05-07 11:25 | 25.04491 | 122.92113 | 29828 ft | 410 kts | 276° |
| 2026-05-07 11:25 | 25.04798 | 122.88991 | 29288 ft | 408 kts | 276° |
| 2026-05-07 11:25 | 25.05103 | 122.85895 | 28784 ft | 405 kts | 275° |
| 2026-05-07 11:25 | 25.05406 | 122.82820 | 28298 ft | 402 kts | 275° |
| 2026-05-07 11:26 | 25.05708 | 122.79753 | 27822 ft | 399 kts | 275° |
| 2026-05-07 11:26 | 25.06005 | 122.76725 | 27356 ft | 396 kts | 275° |
| 2026-05-07 11:26 | 25.06301 | 122.73712 | 26895 ft | 393 kts | 275° |
| 2026-05-07 11:26 | 25.06594 | 122.70722 | 26442 ft | 391 kts | 275° |
| 2026-05-07 11:27 | 25.06885 | 122.67742 | 25987 ft | 389 kts | 275° |
| 2026-05-07 11:27 | 25.07170 | 122.64819 | 25545 ft | 387 kts | 275° |
| 2026-05-07 11:27 | 25.07457 | 122.61870 | 25090 ft | 385 kts | 275° |
| 2026-05-07 11:27 | 25.07742 | 122.58935 | 24639 ft | 384 kts | 275° |
| 2026-05-07 11:28 | 25.08025 | 122.56005 | 24195 ft | 383 kts | 275° |
| 2026-05-07 11:28 | 25.08307 | 122.53087 | 23742 ft | 382 kts | 275° |
| 2026-05-07 11:28 | 25.08588 | 122.50176 | 23261 ft | 381 kts | 275° |
| 2026-05-07 11:28 | 25.08868 | 122.47266 | 22778 ft | 379 kts | 275° |
| 2026-05-07 11:29 | 25.09146 | 122.44381 | 22321 ft | 377 kts | 275° |
| 2026-05-07 11:29 | 25.09418 | 122.41546 | 21889 ft | 374 kts | 275° |
| 2026-05-07 11:29 | 25.09690 | 122.38702 | 21447 ft | 372 kts | 275° |
| 2026-05-07 11:29 | 25.09961 | 122.35869 | 21014 ft | 369 kts | 274° |
| 2026-05-07 11:30 | 25.10228 | 122.33057 | 20575 ft | 367 kts | 274° |
| 2026-05-07 11:30 | 25.10459 | 122.30264 | 20193 ft | 363 kts | 272° |
| 2026-05-07 11:30 | 25.10547 | 122.27498 | 20036 ft | 355 kts | 270° |
| 2026-05-07 11:30 | 25.10574 | 122.24812 | 19981 ft | 346 kts | 269° |
| 2026-05-07 11:31 | 25.10586 | 122.22197 | 19961 ft | 344 kts | 269° |
| 2026-05-07 11:31 | 25.10600 | 122.19555 | 19959 ft | 345 kts | 269° |
| 2026-05-07 11:31 | 25.10618 | 122.16899 | 19962 ft | 346 kts | 269° |
| 2026-05-07 11:31 | 25.10642 | 122.14238 | 19962 ft | 347 kts | 269° |
| 2026-05-07 11:32 | 25.10699 | 122.08894 | 19953 ft | 349 kts | 269° |
| 2026-05-07 11:32 | 25.10730 | 122.06214 | 19955 ft | 350 kts | 269° |
| 2026-05-07 11:32 | 25.10762 | 122.03523 | 19952 ft | 350 kts | 269° |
| 2026-05-07 11:33 | 25.10794 | 122.00834 | 19951 ft | 350 kts | 269° |
| 2026-05-07 11:33 | 25.10826 | 121.98149 | 19951 ft | 350 kts | 269° |
| 2026-05-07 11:33 | 25.10857 | 121.95463 | 19947 ft | 350 kts | 269° |
| 2026-05-07 11:33 | 25.10888 | 121.92777 | 19947 ft | 350 kts | 269° |
| 2026-05-07 11:34 | 25.10918 | 121.90131 | 19947 ft | 349 kts | 269° |
| 2026-05-07 11:34 | 25.10949 | 121.87420 | 19949 ft | 348 kts | 269° |
| 2026-05-07 11:34 | 25.10978 | 121.84751 | 19945 ft | 348 kts | 269° |
| 2026-05-07 11:34 | 25.11007 | 121.82084 | 19944 ft | 347 kts | 269° |
| 2026-05-07 11:35 | 25.11036 | 121.79420 | 19956 ft | 347 kts | 269° |
| 2026-05-07 11:35 | 25.11063 | 121.76791 | 19949 ft | 347 kts | 269° |
| 2026-05-07 11:35 | 25.11091 | 121.74125 | 19943 ft | 347 kts | 269° |
| 2026-05-07 11:35 | 25.11118 | 121.71462 | 19941 ft | 347 kts | 269° |
| 2026-05-07 11:36 | 25.11144 | 121.68777 | 19543 ft | 351 kts | 269° |
| 2026-05-07 11:36 | 25.11170 | 121.66116 | 18994 ft | 345 kts | 269° |
| 2026-05-07 11:36 | 25.11196 | 121.63469 | 18586 ft | 345 kts | 269° |
| 2026-05-07 11:36 | 25.11220 | 121.60830 | 18153 ft | 344 kts | 269° |
| 2026-05-07 11:37 | 25.11245 | 121.58198 | 17692 ft | 342 kts | 269° |
| 2026-05-07 11:37 | 25.11268 | 121.55584 | 17272 ft | 340 kts | 270° |
| 2026-05-07 11:37 | 25.11291 | 121.52983 | 16850 ft | 337 kts | 270° |
| 2026-05-07 11:37 | 25.11314 | 121.50435 | 16461 ft | 335 kts | 270° |
| 2026-05-07 11:38 | 25.11336 | 121.47876 | 16051 ft | 332 kts | 270° |
| 2026-05-07 11:38 | 25.11357 | 121.45333 | 15640 ft | 330 kts | 270° |
| 2026-05-07 11:38 | 25.11378 | 121.42810 | 15242 ft | 327 kts | 270° |
| 2026-05-07 11:38 | 25.11398 | 121.40318 | 14874 ft | 319 kts | 270° |
| 2026-05-07 11:39 | 25.11417 | 121.37888 | 14256 ft | 318 kts | 270° |
| 2026-05-07 11:39 | 25.11435 | 121.35450 | 13905 ft | 315 kts | 271° |
| 2026-05-07 11:39 | 25.11453 | 121.33057 | 13561 ft | 306 kts | 271° |
| 2026-05-07 11:39 | 25.11465 | 121.31513 | 13054 ft | 303 kts | 270° |
| 2026-05-07 11:40 | 25.11482 | 121.29184 | 12201 ft | 304 kts | 270° |
| 2026-05-07 11:40 | 25.11500 | 121.26843 | 11415 ft | 305 kts | 270° |
| 2026-05-07 11:40 | 25.11522 | 121.23749 | 10499 ft | 301 kts | 269° |
| 2026-05-07 11:40 | 25.11532 | 121.22240 | 10140 ft | 291 kts | 269° |
| 2026-05-07 11:41 | 25.11547 | 121.20057 | 9616 ft | 277 kts | 269° |
| 2026-05-07 11:41 | 25.11561 | 121.17986 | 9247 ft | 266 kts | 269° |
| 2026-05-07 11:41 | 25.11573 | 121.15961 | 8907 ft | 262 kts | 269° |
| 2026-05-07 11:41 | 25.11586 | 121.13964 | 8579 ft | 259 kts | 268° |
| 2026-05-07 11:42 | 25.11598 | 121.11988 | 8249 ft | 254 kts | 267° |
| 2026-05-07 11:42 | 25.11285 | 121.10132 | 7968 ft | 241 kts | 244° |
| 2026-05-07 11:42 | 25.10370 | 121.08573 | 7838 ft | 248 kts | 231° |
| 2026-05-07 11:42 | 25.09220 | 121.07101 | 7662 ft | 256 kts | 229° |
| 2026-05-07 11:43 | 25.08037 | 121.05639 | 7433 ft | 254 kts | 228° |
| 2026-05-07 11:43 | 25.06874 | 121.04191 | 6972 ft | 250 kts | 228° |
| 2026-05-07 11:43 | 25.05758 | 121.02786 | 6499 ft | 238 kts | 228° |
| 2026-05-07 11:43 | 25.04641 | 121.01497 | 5984 ft | 230 kts | 215° |
| 2026-05-07 11:44 | 25.03193 | 121.00870 | 5466 ft | 226 kts | 186° |
| 2026-05-07 11:44 | 25.01660 | 121.01032 | 4970 ft | 220 kts | 167° |
| 2026-05-07 11:44 | 25.00279 | 121.01754 | 4588 ft | 221 kts | 143° |
| 2026-05-07 11:44 | 24.99177 | 121.02903 | 4275 ft | 216 kts | 140° |
| 2026-05-07 11:45 | 24.98111 | 121.04021 | 3965 ft | 206 kts | 140° |
| 2026-05-07 11:45 | 24.97095 | 121.05089 | 3693 ft | 198 kts | 136° |
| 2026-05-07 11:45 | 24.96466 | 121.06414 | 3389 ft | 201 kts | 97° |
| 2026-05-07 11:45 | 24.96746 | 121.07906 | 3171 ft | 203 kts | 59° |
| 2026-05-07 11:46 | 24.97557 | 121.09180 | 2952 ft | 205 kts | 52° |
| 2026-05-07 11:46 | 24.98439 | 121.10392 | 2661 ft | 199 kts | 49° |
| 2026-05-07 11:46 | 24.99322 | 121.11520 | 2395 ft | 188 kts | 49° |
| 2026-05-07 11:46 | 25.00153 | 121.12570 | 2189 ft | 180 kts | 49° |
| 2026-05-07 11:47 | 25.00965 | 121.13595 | 1956 ft | 173 kts | 49° |
| 2026-05-07 11:47 | 25.01725 | 121.14557 | 1733 ft | 161 kts | 50° |
| 2026-05-07 11:47 | 25.02456 | 121.15483 | 1518 ft | 159 kts | 50° |
| 2026-05-07 11:47 | 25.03184 | 121.16404 | 1319 ft | 159 kts | 50° |
| 2026-05-07 11:48 | 25.03901 | 121.17313 | 1117 ft | 158 kts | 50° |
| 2026-05-07 11:48 | 25.04622 | 121.18220 | 918 ft | 156 kts | 50° |
| 2026-05-07 11:48 | 25.05329 | 121.19113 | 724 ft | 153 kts | 49° |
| 2026-05-07 11:48 | 25.06037 | 121.19993 | 530 ft | 154 kts | 49° |
| 2026-05-07 11:49 | 25.06732 | 121.20880 | 321 ft | 152 kts | 50° |
| 2026-05-07 11:49 | 25.07421 | 121.21763 | 122 ft | 152 kts | 49° |
| 2026-05-07 11:49 | 25.08064 | 121.22583 | 106 ft | 121 kts | 49° |
| 2026-05-07 11:49 | 25.08493 | 121.23128 | 109 ft | 68 kts | 49° |
| 2026-05-07 11:50 | 25.08671 | 121.23377 | 106 ft | 25 kts | 62° |
| 2026-05-07 11:50 | 25.08711 | 121.23516 | 107 ft | 14 kts | 79° |
| 2026-05-07 11:50 | 25.08729 | 121.23620 | 106 ft | 14 kts | 79° |
| 2026-05-07 11:50 | 25.08747 | 121.23726 | 106 ft | 14 kts | 77° |
| 2026-05-07 11:51 | 25.08786 | 121.23823 | 106 ft | 14 kts | 54° |
| 2026-05-07 11:51 | 25.08840 | 121.23893 | 107 ft | 10 kts | 49° |
| 2026-05-07 11:51 | 25.08844 | 121.23947 | 107 ft | 7 kts | 132° |
| 2026-05-07 11:51 | 25.08804 | 121.23978 | 107 ft | 7 kts | 138° |
| 2026-05-07 11:52 | 25.08778 | 121.24004 | 105 ft | 1 kts | 138° |